createdAt,value
2023-07-22T00:01:27.320Z,30.40
2023-07-22T00:04:14.485Z,32.70
2023-07-22T00:07:01.843Z,30.57
2023-07-22T00:09:51.105Z,33.80
2023-07-22T00:12:38.740Z,35.63
2023-07-22T00:15:26.259Z,33.30
2023-07-22T00:18:13.960Z,36.80
2023-07-22T00:21:01.488Z,36.80
2023-07-22T00:23:49.584Z,40.12
2023-07-22T00:26:37.053Z,36.90
2023-07-22T00:29:24.982Z,31.27
2023-07-22T00:32:12.121Z,34.90
2023-07-22T00:34:59.511Z,31.42
2023-07-22T00:37:46.790Z,38.35
2023-07-22T00:40:34.066Z,34.35
2023-07-22T00:43:21.395Z,38.80
2023-07-22T00:46:08.791Z,38.67
2023-07-22T00:48:56.231Z,44.10
2023-07-22T00:51:43.427Z,38.98
2023-07-22T00:54:31.913Z,40.05
2023-07-22T00:57:20.507Z,37.30
2023-07-22T01:00:10.459Z,40.52
2023-07-22T01:02:58.087Z,38.25
2023-07-22T01:05:45.485Z,36.40
2023-07-22T01:08:33.116Z,35.65
2023-07-22T01:11:20.642Z,36.05
2023-07-22T01:14:09.096Z,34.63
2023-07-22T01:16:56.668Z,35.43
2023-07-22T01:19:44.996Z,33.78
2023-07-22T01:22:32.916Z,36.17
2023-07-22T01:25:22.765Z,33.90
2023-07-22T01:28:13.110Z,38.08
2023-07-22T01:31:00.644Z,31.40
2023-07-22T01:33:47.728Z,35.08
2023-07-22T01:36:35.136Z,34.23
2023-07-22T01:39:23.337Z,38.78
2023-07-22T01:42:10.698Z,27.82
2023-07-22T01:44:58.096Z,24.63
2023-07-22T01:47:45.712Z,30.12
2023-07-22T01:50:32.731Z,26.25
2023-07-22T01:53:20.542Z,31.80
2023-07-22T01:56:07.977Z,25.85
2023-07-22T01:58:55.127Z,28.52
2023-07-22T02:01:42.205Z,29.20
2023-07-22T02:04:29.988Z,36.95
2023-07-22T02:07:17.515Z,28.85
2023-07-22T02:10:05.008Z,24.18
2023-07-22T02:12:52.187Z,29.20
2023-07-22T02:15:39.387Z,25.15
2023-07-22T02:18:26.925Z,27.77
2023-07-22T02:21:14.473Z,28.42
2023-07-22T02:24:02.260Z,33.28
2023-07-22T02:26:49.490Z,33.18
2023-07-22T02:29:37.586Z,29.82
2023-07-22T02:32:24.746Z,34.78
2023-07-22T02:35:12.439Z,32.28
2023-07-22T02:37:59.582Z,35.25
2023-07-22T02:40:46.865Z,36.15
2023-07-22T02:43:34.617Z,32.33
2023-07-22T02:46:21.915Z,40.23
2023-07-22T02:49:09.537Z,28.87
2023-07-22T02:51:57.286Z,35.55
2023-07-22T02:54:46.175Z,37.30
2023-07-22T02:57:34.489Z,33.02
2023-07-22T03:00:23.868Z,36.17
2023-07-22T03:03:11.317Z,35.23
2023-07-22T03:05:59.501Z,40.10
2023-07-22T03:08:47.006Z,33.28
2023-07-22T03:11:35.502Z,40.03
2023-07-22T03:14:23.214Z,39.05
2023-07-22T03:17:10.356Z,33.92
2023-07-22T03:19:58.363Z,49.13
2023-07-22T03:22:46.615Z,43.33
2023-07-22T03:25:35.922Z,40.80
2023-07-22T03:28:23.308Z,43.00
2023-07-22T03:31:10.306Z,47.83
2023-07-22T03:33:59.118Z,45.03
2023-07-22T03:36:47.518Z,46.33
2023-07-22T03:39:35.196Z,49.45
2023-07-22T03:42:22.507Z,43.80
2023-07-22T03:45:13.074Z,45.45
2023-07-22T03:48:02.016Z,46.90
2023-07-22T03:50:51.058Z,40.43
2023-07-22T03:53:38.137Z,46.65
2023-07-22T03:56:25.869Z,46.50
2023-07-22T03:59:13.382Z,45.03
2023-07-22T04:02:00.572Z,60.10
2023-07-22T04:04:47.883Z,51.75
2023-07-22T04:07:35.646Z,51.92
2023-07-22T04:10:22.473Z,44.53
2023-07-22T04:13:09.596Z,44.93
2023-07-22T04:18:37.839Z,50.45
2023-07-22T04:21:25.602Z,42.67
2023-07-22T04:24:12.777Z,44.45
2023-07-22T04:27:00.487Z,42.78
2023-07-22T04:29:47.909Z,50.35
2023-07-22T04:32:35.494Z,44.85
2023-07-22T04:35:22.973Z,47.27
2023-07-22T04:38:09.855Z,45.73
2023-07-22T04:40:57.478Z,51.80
2023-07-22T04:43:45.013Z,49.33
2023-07-22T04:46:32.582Z,46.00
2023-07-22T04:49:20.070Z,42.25
2023-07-22T04:52:08.006Z,40.63
2023-07-22T04:54:55.432Z,42.48
2023-07-22T04:57:45.443Z,41.73
2023-07-22T05:00:32.859Z,39.18
2023-07-22T05:03:20.477Z,34.50
2023-07-22T05:06:07.489Z,43.05
2023-07-22T05:08:54.875Z,36.63
2023-07-22T05:11:42.302Z,37.03
2023-07-22T05:14:29.669Z,37.78
2023-07-22T05:17:17.445Z,35.08
2023-07-22T05:20:06.974Z,37.70
2023-07-22T05:22:54.354Z,44.23
2023-07-22T05:25:41.729Z,41.28
2023-07-22T05:28:29.043Z,34.60
2023-07-22T05:31:17.572Z,41.55
2023-07-22T05:34:05.057Z,39.60
2023-07-22T05:36:52.410Z,45.05
2023-07-22T05:39:39.480Z,35.03
2023-07-22T05:42:26.890Z,34.08
2023-07-22T05:45:15.686Z,32.17
2023-07-22T05:48:02.849Z,30.45
2023-07-22T05:50:50.594Z,26.93
2023-07-22T05:53:38.182Z,25.10
2023-07-22T05:56:25.652Z,25.57
2023-07-22T05:59:13.262Z,27.87
2023-07-22T06:02:00.523Z,30.17
2023-07-22T06:04:48.096Z,31.97
2023-07-22T06:07:35.477Z,26.12
2023-07-22T06:10:23.471Z,29.27
2023-07-22T06:13:10.876Z,29.80
2023-07-22T06:15:58.391Z,27.85
2023-07-22T06:18:45.786Z,24.60
2023-07-22T06:21:33.066Z,22.95
2023-07-22T06:24:20.505Z,29.23
2023-07-22T06:27:07.980Z,26.37
2023-07-22T06:29:56.153Z,24.65
2023-07-22T06:32:43.581Z,19.60
2023-07-22T06:35:30.931Z,23.20
2023-07-22T06:38:18.051Z,19.17
2023-07-22T06:41:05.681Z,23.83
2023-07-22T06:43:52.954Z,22.80
2023-07-22T06:46:40.264Z,19.77
2023-07-22T06:49:27.682Z,18.65
2023-07-22T06:52:15.274Z,20.25
2023-07-22T06:55:02.890Z,17.77
2023-07-22T06:57:51.075Z,19.32
2023-07-22T07:00:38.492Z,21.25
2023-07-22T07:03:25.895Z,18.75
2023-07-22T07:06:14.228Z,18.60
2023-07-22T07:09:02.309Z,17.65
2023-07-22T07:11:49.479Z,20.85
2023-07-22T07:14:36.986Z,16.57
2023-07-22T07:17:24.200Z,21.68
2023-07-22T07:20:11.615Z,18.57
2023-07-22T07:22:58.937Z,15.68
2023-07-22T07:25:46.252Z,19.35
2023-07-22T07:28:33.402Z,17.70
2023-07-22T07:31:21.382Z,16.37
2023-07-22T07:34:09.202Z,16.00
2023-07-22T07:36:56.545Z,17.05
2023-07-22T07:39:43.988Z,15.20
2023-07-22T07:42:31.419Z,14.83
2023-07-22T07:45:18.606Z,16.50
2023-07-22T07:48:06.296Z,16.93
2023-07-22T07:50:53.712Z,12.93
2023-07-22T07:53:40.754Z,15.30
2023-07-22T07:56:28.395Z,16.80
2023-07-22T07:59:15.837Z,12.35
2023-07-22T08:02:03.977Z,13.48
2023-07-22T08:04:51.471Z,12.15
2023-07-22T08:07:38.923Z,13.03
2023-07-22T08:10:26.180Z,11.85
2023-07-22T08:13:15.275Z,14.58
2023-07-22T08:16:06.379Z,12.75
2023-07-22T08:18:54.263Z,14.33
2023-07-22T08:21:41.814Z,9.70
2023-07-22T08:24:29.204Z,12.30
2023-07-22T08:27:16.846Z,11.40
2023-07-22T08:30:04.549Z,13.48
2023-07-22T08:32:51.714Z,14.73
2023-07-22T08:35:39.479Z,13.45
2023-07-22T08:38:27.084Z,12.05
2023-07-22T08:41:17.608Z,11.93
2023-07-22T08:44:07.998Z,9.48
2023-07-22T08:46:58.447Z,12.35
2023-07-22T08:49:51.945Z,12.03
2023-07-22T08:52:40.495Z,10.68
2023-07-22T08:55:28.369Z,12.73
2023-07-22T08:58:16.272Z,14.35
2023-07-22T09:01:04.555Z,11.03
2023-07-22T09:03:53.965Z,11.93
2023-07-22T09:06:43.606Z,13.70
2023-07-22T09:09:32.151Z,10.95
2023-07-22T09:12:20.680Z,9.18
2023-07-22T09:15:12.154Z,8.93
2023-07-22T09:17:59.068Z,10.23
2023-07-22T09:20:46.419Z,7.87
2023-07-22T09:23:38.674Z,8.40
2023-07-22T09:26:26.478Z,6.80
2023-07-22T09:29:14.155Z,7.17
2023-07-22T09:32:01.262Z,11.03
2023-07-22T09:34:58.760Z,9.48
2023-07-22T09:37:46.894Z,8.65
2023-07-22T09:40:34.271Z,8.93
2023-07-22T09:43:21.797Z,4.70
2023-07-22T09:49:03.721Z,5.12
2023-07-22T09:52:02.063Z,9.10
2023-07-22T09:54:51.796Z,6.97
2023-07-22T09:57:41.886Z,7.58
2023-07-22T10:00:34.814Z,7.90
2023-07-22T10:03:22.952Z,7.55
2023-07-22T10:06:10.690Z,5.67
2023-07-22T10:09:09.819Z,8.53
2023-07-22T10:11:57.845Z,5.58
2023-07-22T10:14:46.551Z,4.92
2023-07-22T10:17:34.099Z,6.08
2023-07-22T10:20:21.776Z,7.40
2023-07-22T10:23:10.462Z,4.75
2023-07-22T10:25:59.605Z,6.12
2023-07-22T10:28:48.359Z,3.85
2023-07-22T10:31:35.724Z,10.48
2023-07-22T10:34:28.888Z,5.17
2023-07-22T10:37:20.266Z,5.17
2023-07-22T10:40:22.132Z,6.50
2023-07-22T10:43:11.146Z,6.03
2023-07-22T10:46:00.850Z,5.08
2023-07-22T10:48:49.229Z,4.28
2023-07-22T10:51:39.411Z,3.25
2023-07-22T10:54:37.731Z,5.85
2023-07-22T10:57:26.290Z,8.10
2023-07-22T11:00:16.646Z,20.72
2023-07-22T11:03:16.333Z,5.72
2023-07-22T11:06:03.748Z,5.37
2023-07-22T11:08:51.473Z,4.67
2023-07-22T11:11:44.917Z,5.53
2023-07-22T11:14:35.484Z,4.90
2023-07-22T11:17:33.179Z,5.83
2023-07-22T11:20:22.228Z,6.95
2023-07-22T11:23:10.453Z,6.35
2023-07-22T11:25:58.013Z,5.22
2023-07-22T11:28:46.872Z,6.70
2023-07-22T11:31:38.086Z,6.65
2023-07-22T11:34:27.294Z,6.17
2023-07-22T11:37:15.664Z,5.53
2023-07-22T11:40:03.803Z,8.43
2023-07-22T11:42:52.148Z,5.92
2023-07-22T11:45:42.591Z,8.95
2023-07-22T11:48:29.888Z,3.92
2023-07-22T11:51:20.105Z,5.72
2023-07-22T11:54:09.694Z,4.05
2023-07-22T11:56:57.832Z,4.92
2023-07-22T11:59:50.347Z,5.62
2023-07-22T12:02:38.507Z,5.47
2023-07-22T12:05:25.942Z,4.33
2023-07-22T12:08:16.740Z,6.67
2023-07-22T12:11:05.188Z,4.33
2023-07-22T12:14:15.059Z,3.62
2023-07-22T12:17:01.154Z,8.00
2023-07-22T12:19:56.191Z,7.22
2023-07-22T12:22:44.384Z,4.33
2023-07-22T12:25:35.970Z,6.08
2023-07-22T12:28:23.551Z,6.15
2023-07-22T12:31:11.045Z,4.33
2023-07-22T12:33:58.499Z,3.83
2023-07-22T12:36:46.209Z,6.58
2023-07-22T12:39:33.161Z,12.40
2023-07-22T12:42:20.727Z,6.15
2023-07-22T12:45:08.882Z,5.80
2023-07-22T12:47:56.168Z,7.75
2023-07-22T12:50:45.091Z,4.37
2023-07-22T12:53:33.020Z,5.33
2023-07-22T12:56:20.650Z,5.42
2023-07-22T12:59:08.137Z,3.75
2023-07-22T13:01:56.227Z,4.92
2023-07-22T13:04:45.211Z,6.10
2023-07-22T13:07:32.766Z,4.17
2023-07-22T13:10:21.397Z,6.90
2023-07-22T13:13:09.022Z,5.00
2023-07-22T13:15:56.577Z,8.73
2023-07-22T13:18:44.078Z,6.37
2023-07-22T13:21:31.747Z,6.87
2023-07-22T13:24:19.211Z,15.40
2023-07-22T13:27:06.971Z,5.17
2023-07-22T13:29:54.580Z,6.42
2023-07-22T13:32:42.158Z,5.33
2023-07-22T13:35:31.159Z,4.40
2023-07-22T13:38:18.357Z,7.20
2023-07-22T13:41:06.232Z,3.75
2023-07-22T13:43:53.745Z,9.00
2023-07-22T13:46:40.841Z,5.70
2023-07-22T13:49:28.030Z,3.92
2023-07-22T13:52:15.500Z,4.62
2023-07-22T13:55:03.107Z,5.70
2023-07-22T13:57:50.250Z,5.60
2023-07-22T14:00:37.757Z,4.50
2023-07-22T14:03:25.053Z,4.80
2023-07-22T14:06:12.466Z,7.08
2023-07-22T14:09:00.357Z,3.92
2023-07-22T14:11:48.209Z,3.33
2023-07-22T14:14:35.757Z,4.28
2023-07-22T14:17:23.212Z,5.72
2023-07-22T14:20:12.351Z,6.17
2023-07-22T14:23:00.066Z,3.70
2023-07-22T14:25:47.412Z,9.43
2023-07-22T14:28:34.224Z,8.85
2023-07-22T14:31:22.007Z,5.17
2023-07-22T14:34:09.876Z,5.33
2023-07-22T14:36:57.096Z,4.42
2023-07-22T14:39:44.675Z,3.47
2023-07-22T14:42:32.255Z,4.08
2023-07-22T14:45:19.671Z,3.83
2023-07-22T14:48:07.459Z,5.70
2023-07-22T14:50:54.888Z,5.70
2023-07-22T14:53:42.518Z,3.45
2023-07-22T14:56:29.862Z,4.67
2023-07-22T14:59:17.908Z,7.70
2023-07-22T15:02:05.360Z,5.30
2023-07-22T15:04:52.703Z,7.85
2023-07-22T15:07:39.971Z,5.40
2023-07-22T15:10:27.072Z,6.87
2023-07-22T15:13:14.448Z,7.28
2023-07-22T15:16:01.776Z,9.08
2023-07-22T15:18:49.199Z,3.47
2023-07-22T15:21:36.974Z,5.70
2023-07-22T15:24:24.417Z,5.55
2023-07-22T15:27:11.528Z,3.40
2023-07-22T15:29:58.970Z,5.70
2023-07-22T15:32:46.505Z,3.62
2023-07-22T15:35:33.751Z,3.80
2023-07-22T15:38:21.265Z,4.67
2023-07-22T15:41:08.685Z,4.55
2023-07-22T15:43:56.145Z,4.65
2023-07-22T15:46:43.485Z,5.40
2023-07-22T15:49:33.864Z,3.50
2023-07-22T15:52:22.326Z,4.30
2023-07-22T15:55:09.777Z,5.03
2023-07-22T15:57:56.693Z,7.08
2023-07-22T16:00:44.388Z,4.47
2023-07-22T16:03:32.875Z,2.72
2023-07-22T16:06:31.927Z,4.87
2023-07-22T16:09:09.761Z,5.67
2023-07-22T16:11:57.092Z,5.40
2023-07-22T16:14:44.516Z,4.50
2023-07-22T16:17:31.951Z,4.37
2023-07-22T16:20:19.631Z,4.50
2023-07-22T16:23:07.141Z,6.75
2023-07-22T16:25:54.696Z,7.70
2023-07-22T16:28:41.986Z,4.78
2023-07-22T16:31:29.409Z,5.20
2023-07-22T16:34:18.167Z,3.87
2023-07-22T16:37:05.669Z,5.08
2023-07-22T16:39:54.797Z,6.17
2023-07-22T16:42:42.649Z,5.85
2023-07-22T16:45:29.798Z,6.30
2023-07-22T16:48:17.276Z,4.65
2023-07-22T16:51:04.734Z,5.85
2023-07-22T16:53:52.338Z,5.85
2023-07-22T16:56:39.498Z,5.83
2023-07-22T16:59:27.423Z,5.15
2023-07-22T17:02:14.758Z,6.62
2023-07-22T17:05:02.225Z,6.87
2023-07-22T17:07:49.489Z,6.92
2023-07-22T17:10:37.225Z,9.70
2023-07-22T17:13:24.373Z,5.78
2023-07-22T17:16:11.741Z,5.42
2023-07-22T17:18:59.064Z,5.05
2023-07-22T17:21:46.563Z,6.50
2023-07-22T17:24:34.095Z,5.87
2023-07-22T17:27:21.333Z,6.85
2023-07-22T17:30:09.715Z,6.42
2023-07-22T17:32:57.005Z,6.90
2023-07-22T17:35:45.399Z,5.47
2023-07-22T17:38:32.874Z,8.05
2023-07-22T17:41:20.160Z,7.00
2023-07-22T17:44:07.510Z,9.75
2023-07-22T17:46:55.408Z,8.35
2023-07-22T17:49:42.512Z,6.33
2023-07-22T17:52:29.899Z,6.62
2023-07-22T17:55:17.569Z,6.53
2023-07-22T17:58:05.234Z,4.33
2023-07-22T18:00:52.643Z,5.28
2023-07-22T18:03:40.066Z,6.15
2023-07-22T18:06:27.983Z,6.55
2023-07-22T18:09:15.313Z,6.45
2023-07-22T18:12:02.746Z,13.18
2023-07-22T18:14:50.401Z,7.12
2023-07-22T18:17:37.921Z,8.13
2023-07-22T18:20:24.966Z,10.10
2023-07-22T18:23:12.411Z,5.60
2023-07-22T18:25:59.856Z,5.78
2023-07-22T18:28:47.502Z,8.13
2023-07-22T18:31:34.895Z,6.03
2023-07-22T18:34:22.917Z,6.35
2023-07-22T18:37:10.293Z,5.58
2023-07-22T18:39:57.782Z,5.25
2023-07-22T18:42:44.820Z,8.73
2023-07-22T18:45:32.737Z,7.60
2023-07-22T18:48:20.289Z,6.97
2023-07-22T18:51:07.768Z,6.42
2023-07-22T18:53:55.338Z,5.37
2023-07-22T18:56:42.539Z,6.72
2023-07-22T18:59:30.193Z,5.62
2023-07-22T19:02:17.764Z,9.68
2023-07-22T19:05:05.380Z,5.28
2023-07-22T19:07:52.990Z,6.97
2023-07-22T19:10:47.870Z,6.78
2023-07-22T19:13:35.364Z,6.28
2023-07-22T19:16:22.762Z,6.12
2023-07-22T19:19:10.159Z,6.35
2023-07-22T19:21:57.407Z,5.47
2023-07-22T19:24:48.496Z,7.58
2023-07-22T19:27:35.821Z,9.08
2023-07-22T19:30:23.177Z,6.42
2023-07-22T19:33:10.769Z,6.17
2023-07-22T19:36:08.288Z,7.25
2023-07-22T19:38:55.607Z,5.72
2023-07-22T19:41:43.175Z,6.60
2023-07-22T19:44:30.778Z,7.03
2023-07-22T19:47:18.707Z,8.30
2023-07-22T19:50:07.495Z,6.08
2023-07-22T19:52:54.915Z,6.03
2023-07-22T19:55:42.477Z,7.03
2023-07-22T19:58:29.736Z,5.72
2023-07-22T20:01:17.516Z,6.78
2023-07-22T20:04:04.878Z,9.78
2023-07-22T20:06:51.985Z,5.47
2023-07-22T20:09:39.089Z,10.82
2023-07-22T20:12:26.652Z,4.10
2023-07-22T20:15:14.013Z,7.50
2023-07-22T20:18:01.622Z,7.80
2023-07-22T20:20:49.164Z,6.03
2023-07-22T20:23:36.384Z,7.42
2023-07-22T20:26:23.739Z,5.45
2023-07-22T20:29:11.385Z,7.60
2023-07-22T20:31:58.532Z,9.48
2023-07-22T20:34:46.142Z,6.70
2023-07-22T20:37:33.313Z,5.83
2023-07-22T20:40:20.737Z,5.65
2023-07-22T20:43:08.002Z,6.03
2023-07-22T20:45:55.566Z,9.03
2023-07-22T20:48:43.193Z,7.45
2023-07-22T20:51:30.608Z,5.45
2023-07-22T20:54:18.171Z,11.60
2023-07-22T20:57:05.569Z,7.22
2023-07-22T20:59:56.040Z,6.47
2023-07-22T21:02:43.396Z,6.60
2023-07-22T21:05:30.817Z,6.72
2023-07-22T21:08:18.203Z,8.45
2023-07-22T21:11:05.732Z,13.30
2023-07-22T21:13:54.311Z,7.90
2023-07-22T21:16:41.140Z,9.13
2023-07-22T21:19:28.504Z,10.35
2023-07-22T21:22:15.629Z,12.65
2023-07-22T21:25:03.271Z,12.68
2023-07-22T21:27:50.806Z,10.03
2023-07-22T21:30:38.200Z,12.03
2023-07-22T21:33:25.748Z,17.12
2023-07-22T21:36:13.407Z,16.73
2023-07-22T21:39:00.831Z,24.05
2023-07-22T21:41:48.256Z,16.95
2023-07-22T21:44:35.690Z,17.23
2023-07-22T21:47:23.438Z,23.67
2023-07-22T21:50:11.590Z,26.87
2023-07-22T21:52:59.356Z,18.32
2023-07-22T21:55:46.678Z,20.43
2023-07-22T21:58:34.968Z,16.15
2023-07-22T22:01:22.129Z,19.10
2023-07-22T22:04:09.471Z,13.50
2023-07-22T22:06:56.744Z,15.95
2023-07-22T22:09:43.864Z,14.45
2023-07-22T22:12:32.605Z,14.07
2023-07-22T22:15:20.261Z,10.40
2023-07-22T22:18:07.723Z,13.13
2023-07-22T22:20:55.102Z,15.15
2023-07-22T22:23:43.529Z,6.47
2023-07-22T22:26:30.712Z,13.70
2023-07-22T22:29:17.893Z,9.40
2023-07-22T22:32:05.859Z,12.85
2023-07-22T22:34:53.360Z,9.35
2023-07-22T22:37:40.821Z,9.90
2023-07-22T22:40:28.207Z,6.92
2023-07-22T22:43:15.675Z,7.53
2023-07-22T22:46:03.060Z,10.15
2023-07-22T22:48:50.010Z,7.55
2023-07-22T22:51:37.428Z,7.45
2023-07-22T22:54:25.166Z,5.87
2023-07-22T22:57:12.463Z,9.00
2023-07-22T22:59:59.913Z,7.97
2023-07-22T23:02:49.004Z,8.50
2023-07-22T23:05:36.209Z,5.40
2023-07-22T23:08:23.479Z,7.10
2023-07-22T23:11:17.111Z,6.47
2023-07-22T23:14:04.544Z,9.13
2023-07-22T23:16:51.922Z,8.03
2023-07-22T23:19:38.998Z,6.97
2023-07-22T23:22:26.119Z,8.75
2023-07-22T23:25:13.519Z,8.55
2023-07-22T23:28:01.270Z,9.13
2023-07-22T23:30:48.526Z,8.45
2023-07-22T23:33:36.095Z,8.45
2023-07-22T23:36:23.797Z,6.42
2023-07-22T23:39:11.062Z,7.75
2023-07-22T23:41:58.513Z,5.22
2023-07-22T23:44:45.947Z,6.92
2023-07-22T23:47:33.728Z,6.53
2023-07-22T23:50:20.857Z,9.65
2023-07-22T23:53:08.384Z,5.67
2023-07-22T23:55:55.642Z,7.50
2023-07-22T23:58:43.332Z,8.00
